Time;durP1;ratioP1;P1;durP2;ratioP2;P2;SDS_P1;SDS_P2;PMS_P1;PMS_P2;Temp;Humidity;BMP_temperature;BMP_pressure;BME280_temperature;BME280_humidity;BME280_pressure;Samples;Min_cycle;Max_cycle;Signal;HPM_P1;HPM_P2
2023/01/22 00:01:15;;;;;;;118.53;65.07;;;;;;;0.99;100.00;100313.91;5113585;28;20024;-75
2023/01/22 00:03:42;;;;;;;87.80;39.28;;;;;;;1.01;100.00;100347.25;5113428;28;20027;-75
2023/01/22 00:06:09;;;;;;;85.00;46.17;;;;;;;1.18;100.00;100348.19;5113227;28;20027;-75
2023/01/22 00:08:34;;;;;;;72.57;35.80;;;;;;;1.04;100.00;100323.31;5113679;28;20107;-75
2023/01/22 00:11:00;;;;;;;78.93;46.15;;;;;;;1.24;100.00;100353.31;5113357;28;20531;-75
2023/01/22 00:13:26;;;;;;;73.18;38.10;;;;;;;1.37;100.00;100358.47;5113509;28;20097;-75
2023/01/22 00:15:52;;;;;;;104.45;59.80;;;;;;;1.27;100.00;100364.44;5113121;28;20023;-75
2023/01/22 00:18:18;;;;;;;75.57;42.88;;;;;;;1.13;100.00;100338.72;5113340;28;20390;-75
2023/01/22 00:20:50;;;;;;;66.43;33.05;;;;;;;1.15;100.00;100357.56;5112842;28;20574;-75
2023/01/22 00:23:16;;;;;;;67.57;32.97;;;;;;;1.05;100.00;100331.00;5113059;28;20015;-75
2023/01/22 00:25:41;;;;;;;121.28;64.22;;;;;;;1.03;100.00;100337.00;5113326;28;20477;-75
2023/01/22 00:28:07;;;;;;;89.10;46.67;;;;;;;1.27;100.00;100361.88;5112913;28;20215;-75
2023/01/22 00:30:32;;;;;;;82.30;42.92;;;;;;;1.07;100.00;100331.88;5112886;28;20024;-75
2023/01/22 00:32:58;;;;;;;131.82;73.32;;;;;;;1.36;100.00;100369.59;5112859;28;20430;-75
2023/01/22 00:35:23;;;;;;;90.10;42.88;;;;;;;1.13;100.00;100378.06;5112914;28;20459;-75
2023/01/22 00:37:48;;;;;;;75.68;39.25;;;;;;;1.07;100.00;100346.44;5112741;28;20028;-75
2023/01/22 00:40:15;;;;;;;153.80;83.18;;;;;;;1.11;100.00;100341.31;5113005;28;20128;-75
2023/01/22 00:42:40;;;;;;;106.07;57.53;;;;;;;1.18;100.00;100349.84;5113115;28;20510;-75
2023/01/22 00:45:06;;;;;;;93.30;52.85;;;;;;;1.34;100.00;100377.28;5112703;28;20032;-75
2023/01/22 00:47:32;;;;;;;79.72;37.75;;;;;;;1.09;100.00;100385.75;5112647;28;20035;-75
2023/01/22 00:49:58;;;;;;;94.18;46.67;;;;;;;1.11;100.00;100384.06;5112409;28;20450;-75
2023/01/22 00:52:23;;;;;;;91.30;46.03;;;;;;;1.11;100.00;100381.50;5112905;28;20114;-75
2023/01/22 00:54:49;;;;;;;95.43;51.83;;;;;;;1.25;100.00;100400.34;5112969;28;20125;-75
2023/01/22 00:57:14;;;;;;;88.55;41.80;;;;;;;1.17;100.00;100400.31;5112713;28;20043;-75
2023/01/22 00:59:39;;;;;;;74.70;37.63;;;;;;;1.11;100.00;100400.31;5112757;28;20032;-75
2023/01/22 01:02:05;;;;;;;78.03;42.65;;;;;;;0.97;100.00;100372.06;5112054;28;20024;-75
2023/01/22 01:04:31;;;;;;;90.65;35.33;;;;;;;0.92;100.00;100381.41;5112272;28;20039;-75
2023/01/22 01:06:56;;;;;;;107.72;55.85;;;;;;;0.90;100.00;100372.88;5112555;28;20482;-75
2023/01/22 01:09:21;;;;;;;74.30;36.88;;;;;;;0.88;100.00;100373.69;5112510;28;20055;-75
2023/01/22 01:11:47;;;;;;;79.57;38.13;;;;;;;1.03;100.00;100411.41;5112902;28;20398;-75
2023/01/22 01:14:12;;;;;;;73.32;34.72;;;;;;;1.09;100.00;100412.25;5112184;28;20035;-75
2023/01/22 01:16:38;;;;;;;76.20;34.83;;;;;;;0.99;100.00;100408.81;5112440;28;20028;-75
2023/01/22 01:19:07;;;;;;;81.32;34.67;;;;;;;0.99;100.00;100413.09;5112119;28;20024;-75
2023/01/22 01:21:33;;;;;;;60.00;32.85;;;;;;;0.90;100.00;100379.72;5112438;28;20047;-75
2023/01/22 01:23:59;;;;;;;70.45;34.60;;;;;;;0.93;100.00;100407.94;5112100;28;20035;-75
2023/01/22 01:26:25;;;;;;;73.55;31.58;;;;;;;0.97;100.00;100409.66;5112269;28;20544;-75
2023/01/22 01:28:53;;;;;;;79.70;34.90;;;;;;;0.83;100.00;100390.78;5112379;28;20119;-75
2023/01/22 01:31:21;;;;;;;76.13;35.75;;;;;;;1.07;100.00;100420.81;5112300;28;20424;-75
2023/01/22 01:33:46;;;;;;;65.63;30.38;;;;;;;1.08;100.00;100414.84;5112194;28;20039;-75
2023/01/22 01:36:18;;;;;;;95.80;50.92;;;;;;;1.00;100.00;100392.56;5112224;28;20036;-75
2023/01/22 01:38:43;;;;;;;71.00;37.47;;;;;;;1.01;100.00;100393.41;5112411;28;20046;-75
2023/01/22 01:41:14;;;;;;;71.80;33.90;;;;;;;0.97;100.00;100399.41;5110677;28;20471;-75
2023/01/22 01:43:40;;;;;;;64.13;29.65;;;;;;;1.11;100.00;100422.56;5115762;28;20030;-75
2023/01/22 01:46:17;;;;;;;63.95;34.72;;;;;;;1.10;100.00;100405.44;5115986;28;20031;-75
2023/01/22 01:48:46;;;;;;;64.60;32.88;;;;;;;1.13;100.00;100415.69;5116477;28;20072;-75
2023/01/22 01:51:22;;;;;;;70.95;35.47;;;;;;;1.12;100.00;100416.56;5116114;28;20038;-75
2023/01/22 01:53:49;;;;;;;79.40;42.97;;;;;;;1.14;100.00;100420.00;5116220;28;20035;-75
2023/01/22 01:56:20;;;;;;;93.60;50.38;;;;;;;1.07;100.00;100408.00;5115912;28;20027;-75
2023/01/22 01:58:49;;;;;;;110.30;58.60;;;;;;;1.30;100.00;100426.88;5115901;28;20051;-75
2023/01/22 02:01:16;;;;;;;136.55;69.00;;;;;;;1.10;100.00;100398.59;5115860;28;20028;-75
2023/01/22 02:03:44;;;;;;;153.88;73.43;;;;;;;1.35;100.00;100429.47;5116136;27;20027;-75
2023/01/22 02:06:18;;;;;;;105.68;51.03;;;;;;;1.00;100.00;100407.94;5115803;28;20028;-75
2023/01/22 02:08:47;;;;;;;100.30;52.70;;;;;;;1.00;100.00;100414.78;5115941;28;20478;-75
2023/01/22 02:11:13;;;;;;;77.07;39.33;;;;;;;1.04;100.00;100411.38;5115576;28;20038;-75
2023/01/22 02:13:44;;;;;;;131.52;56.25;;;;;;;0.98;100.00;100445.56;5116307;28;20363;-75
2023/01/22 02:16:11;;;;;;;132.05;58.38;;;;;;;1.11;100.00;100433.66;5115724;28;20051;-75
2023/01/22 02:18:37;;;;;;;294.60;121.53;;;;;;;1.11;100.00;100438.78;5115792;27;20386;-75
2023/01/22 02:21:02;;;;;;;78.70;37.05;;;;;;;1.12;100.00;100437.09;5115495;28;20043;-75
2023/01/22 02:23:30;;;;;;;131.57;59.13;;;;;;;0.97;100.00;100400.25;5115611;28;20027;-75
2023/01/22 02:25:57;;;;;;;139.95;62.13;;;;;;;1.07;100.00;100424.25;5115202;28;20058;-75
2023/01/22 02:28:22;;;;;;;169.32;72.22;;;;;;;1.08;100.00;100415.69;5115665;28;20057;-75
2023/01/22 02:30:48;;;;;;;52.55;27.40;;;;;;;1.29;100.00;100450.84;5115432;28;20112;-75
2023/01/22 02:33:14;;;;;;;49.30;24.63;;;;;;;1.26;100.00;100450.81;5115323;28;20020;-75
2023/01/22 02:35:39;;;;;;;116.70;53.88;;;;;;;1.17;100.00;100420.84;5115305;28;20035;-75
2023/01/22 02:38:05;;;;;;;74.43;37.03;;;;;;;1.28;100.00;100441.44;5115090;28;20024;-75
2023/01/22 02:40:30;;;;;;;42.67;23.98;;;;;;;1.40;100.00;100456.03;5115091;28;20047;-75
2023/01/22 02:42:56;;;;;;;53.92;28.38;;;;;;;1.34;100.00;100459.41;5115343;28;20468;-75
2023/01/22 02:45:22;;;;;;;43.90;25.30;;;;;;;1.20;100.00;100438.81;5115187;28;20399;-75
2023/01/22 02:47:48;;;;;;;51.13;27.73;;;;;;;1.10;100.00;100418.28;5115189;28;20023;-75
2023/01/22 02:50:14;;;;;;;70.28;35.72;;;;;;;1.45;100.00;100468.00;5114761;27;20027;-75
2023/01/22 02:52:39;;;;;;;299.20;148.13;;;;;;;1.48;100.00;100465.47;5114817;28;20024;-75
2023/01/22 02:55:05;;;;;;;75.45;46.92;;;;;;;1.31;100.00;100461.13;5114691;28;20524;-75
2023/01/22 02:57:30;;;;;;;72.93;48.38;;;;;;;1.42;100.00;100475.69;5115363;28;20035;-75
2023/01/22 02:59:57;;;;;;;174.90;99.95;;;;;;;1.30;100.00;100449.97;5115089;28;20036;-75
2023/01/22 03:02:22;;;;;;;58.80;33.90;;;;;;;1.35;100.00;100453.44;5114840;28;20073;-75
2023/01/22 03:04:48;;;;;;;174.15;88.72;;;;;;;1.43;100.00;100471.41;5114859;28;20463;-75
2023/01/22 03:07:17;;;;;;;95.60;52.05;;;;;;;1.47;100.00;100473.13;5114506;28;20024;-75
2023/01/22 03:09:43;;;;;;;79.93;43.42;;;;;;;1.41;100.00;100466.28;5114920;28;20433;-75
2023/01/22 03:12:09;;;;;;;137.93;67.88;;;;;;;1.47;100.00;100471.44;5114638;28;20053;-75
2023/01/22 03:22:48;;;;;;;259.05;107.72;;;;;;;1.13;100.00;100429.38;5114808;28;20096;-75
2023/01/22 03:25:13;;;;;;;56.97;32.28;;;;;;;1.21;100.00;100467.91;5114237;28;20035;-75
2023/01/22 03:28:07;;;;;;;122.68;52.80;;;;;;;1.23;100.00;100471.34;5114479;28;20020;-75
2023/01/22 03:30:24;;;;;;;67.85;35.03;;;;;;;1.21;100.00;100461.06;5113965;28;20041;-75
2023/01/22 03:32:49;;;;;;;65.07;33.80;;;;;;;1.12;100.00;100447.34;5114215;28;20386;-75
2023/01/22 03:35:14;;;;;;;147.65;66.80;;;;;;;1.42;100.00;100479.97;5114102;28;20027;-75
2023/01/22 03:37:40;;;;;;;74.30;39.63;;;;;;;1.36;100.00;100485.09;5114294;28;20037;-75
2023/01/22 03:40:05;;;;;;;86.35;41.67;;;;;;;1.22;100.00;100478.19;5114142;28;20077;-75
2023/01/22 03:42:31;;;;;;;91.38;46.90;;;;;;;1.33;100.00;100496.19;5114057;28;20027;-75
2023/01/22 03:44:56;;;;;;;61.35;32.22;;;;;;;1.30;100.00;100492.75;5113919;28;20031;-75
2023/01/22 03:47:21;;;;;;;54.38;30.33;;;;;;;1.09;100.00;100460.16;5113807;28;20019;-75
2023/01/22 03:49:47;;;;;;;56.58;29.08;;;;;;;1.04;100.00;100467.81;5114109;28;20049;-75
2023/01/22 03:52:12;;;;;;;67.95;34.63;;;;;;;1.05;100.00;100474.66;5113762;28;20034;-75
2023/01/22 03:54:37;;;;;;;78.22;39.08;;;;;;;1.12;100.00;100467.88;5113933;28;20027;-75
2023/01/22 03:57:02;;;;;;;71.10;43.42;;;;;;;1.27;100.00;100492.75;5113504;28;20020;-75
2023/01/22 03:59:28;;;;;;;104.90;62.33;;;;;;;1.36;100.00;100482.53;5113641;28;20467;-75
2023/01/22 04:01:53;;;;;;;58.22;34.58;;;;;;;1.29;100.00;100491.91;5113745;28;20020;-75
2023/01/22 04:04:19;;;;;;;51.58;29.30;;;;;;;1.12;100.00;100490.97;5113053;28;20020;-75
2023/01/22 04:06:44;;;;;;;69.22;39.83;;;;;;;1.29;100.00;100501.31;5113214;28;20069;-75
2023/01/22 04:09:09;;;;;;;85.55;48.00;;;;;;;1.20;100.00;100472.19;5113321;28;20544;-75
2023/01/22 04:11:34;;;;;;;62.50;34.78;;;;;;;1.22;100.00;100500.41;5113552;28;20122;-75
2023/01/22 04:14:00;;;;;;;94.10;44.03;;;;;;;1.07;100.00;100478.13;5113339;28;20023;-75
2023/01/22 04:16:25;;;;;;;281.48;110.45;;;;;;;1.08;100.00;100478.97;5113088;28;20051;-75
2023/01/22 04:18:50;;;;;;;176.52;72.72;;;;;;;1.25;100.00;100503.84;5113506;28;20066;-75
2023/01/22 04:21:16;;;;;;;61.47;34.30;;;;;;;1.08;100.00;100497.78;5112964;28;20135;-75
2023/01/22 04:23:41;;;;;;;129.85;56.88;;;;;;;1.00;100.00;100482.34;5113304;28;20103;-75
2023/01/22 04:26:07;;;;;;;72.55;36.15;;;;;;;1.05;100.00;100508.00;5113015;28;20027;-75
2023/01/22 04:28:32;;;;;;;64.57;32.47;;;;;;;0.98;100.00;100489.19;5113157;28;20055;-75
2023/01/22 04:30:58;;;;;;;65.45;35.75;;;;;;;0.96;100.00;100490.00;5113038;28;20031;-75
2023/01/22 04:33:23;;;;;;;85.28;43.47;;;;;;;1.20;100.00;100507.25;5113024;28;20027;-75
2023/01/22 04:35:53;;;;;;;71.63;40.45;;;;;;;1.27;100.00;100518.44;5113107;28;20528;-75
2023/01/22 04:38:19;;;;;;;67.75;37.80;;;;;;;1.29;100.00;100512.44;5113201;28;20032;-75
2023/01/22 04:40:44;;;;;;;87.03;43.53;;;;;;;1.25;100.00;100511.56;5112849;28;20026;-75
2023/01/22 04:43:10;;;;;;;94.15;49.47;;;;;;;1.19;100.00;100505.56;5112640;28;20031;-75
2023/01/22 04:45:35;;;;;;;81.20;43.67;;;;;;;1.19;100.00;100491.00;5113028;28;20031;-75
2023/01/22 04:48:01;;;;;;;66.45;36.33;;;;;;;1.24;100.00;100507.28;5113017;28;20020;-75
2023/01/22 04:50:29;;;;;;;75.18;37.55;;;;;;;1.16;100.00;100514.06;5112562;28;20080;-75
2023/01/22 04:52:55;;;;;;;92.90;48.78;;;;;;;1.36;100.00;100533.88;5112802;28;20054;-75
2023/01/22 04:55:23;;;;;;;83.55;42.85;;;;;;;1.27;100.00;100521.00;5112426;28;20479;-75
2023/01/22 04:57:48;;;;;;;118.47;59.47;;;;;;;1.36;100.00;100519.31;5112568;28;20412;-75
2023/01/22 05:00:14;;;;;;;75.60;41.20;;;;;;;1.09;100.00;100471.25;5112524;28;20051;-75
2023/01/22 05:02:39;;;;;;;67.75;39.97;;;;;;;1.29;100.00;100494.47;5112799;28;20056;-75
2023/01/22 05:05:07;;;;;;;73.25;46.05;;;;;;;1.44;100.00;100529.63;5112683;28;20050;-75
2023/01/22 05:07:33;;;;;;;81.50;50.25;;;;;;;1.34;100.00;100531.28;5112445;28;20024;-75
2023/01/22 05:09:58;;;;;;;65.68;36.17;;;;;;;1.09;100.00;100481.53;5112538;28;20056;-75
2023/01/22 05:12:24;;;;;;;65.90;38.40;;;;;;;1.40;100.00;100533.03;5112062;28;20099;-75
2023/01/22 05:14:49;;;;;;;60.05;34.40;;;;;;;1.30;100.00;100536.38;5112673;28;20058;-75
2023/01/22 05:17:14;;;;;;;70.90;40.80;;;;;;;1.07;100.00;100518.31;5112279;28;20016;-75
2023/01/22 05:19:40;;;;;;;53.17;31.15;;;;;;;1.11;100.00;100545.69;5112267;28;20046;-75
2023/01/22 05:22:05;;;;;;;42.90;25.50;;;;;;;1.12;100.00;100558.53;5112005;28;20043;-75
2023/01/22 05:24:31;;;;;;;43.15;28.02;;;;;;;1.17;100.00;100549.13;5112140;28;20521;-75
2023/01/22 05:26:56;;;;;;;44.55;27.15;;;;;;;1.11;100.00;100541.41;5112226;28;20047;-75
2023/01/22 05:29:24;;;;;;;43.58;27.42;;;;;;;1.12;100.00;100532.88;5112213;28;20153;-75
2023/01/22 05:31:51;;;;;;;41.20;26.75;;;;;;;1.12;100.00;100539.72;5112348;28;20035;-75
2023/01/22 05:34:16;;;;;;;36.17;25.40;;;;;;;1.33;100.00;100562.06;5112199;28;20080;-75
2023/01/22 05:36:41;;;;;;;38.38;26.05;;;;;;;1.30;100.00;100544.09;5112306;28;20024;-75
2023/01/22 05:39:07;;;;;;;43.45;28.92;;;;;;;1.45;100.00;100569.84;5112260;28;20030;-75
2023/01/22 05:41:32;;;;;;;42.90;29.23;;;;;;;1.27;100.00;100536.38;5111860;28;20066;-75
2023/01/22 05:44:00;;;;;;;40.03;26.80;;;;;;;1.45;100.00;100563.00;5112240;28;20557;-75
2023/01/22 05:46:25;;;;;;;44.78;28.77;;;;;;;1.16;100.00;100520.91;5111978;28;20463;-75
2023/01/22 05:48:51;;;;;;;59.53;36.65;;;;;;;1.45;100.00;100569.84;5112328;28;20030;-75
2023/01/22 05:51:16;;;;;;;74.32;42.38;;;;;;;1.41;100.00;100560.41;5112007;28;20035;-75
2023/01/22 05:53:41;;;;;;;88.45;43.85;;;;;;;1.27;100.00;100546.66;5112125;28;20035;-75
2023/01/22 05:56:07;;;;;;;128.50;64.63;;;;;;;1.40;100.00;100564.69;5111959;28;20028;-75
2023/01/22 05:58:32;;;;;;;94.10;50.33;;;;;;;1.43;100.00;100562.16;5111923;28;20072;-75
2023/01/22 06:00:58;;;;;;;81.60;46.22;;;;;;;1.59;100.00;100593.00;5112079;28;20027;-75
2023/01/22 06:03:24;;;;;;;52.13;32.00;;;;;;;1.55;100.00;100587.00;5111577;28;20471;-75
2023/01/22 06:06:06;;;;;;;46.97;31.02;;;;;;;1.44;100.00;100573.25;5111955;28;20056;-75
2023/01/22 06:08:33;;;;;;;45.70;30.40;;;;;;;1.47;100.00;100591.22;5111668;28;20023;-75
2023/01/22 06:11:02;;;;;;;57.03;35.70;;;;;;;1.42;100.00;100590.34;5112199;28;20401;-75
2023/01/22 06:13:28;;;;;;;56.15;34.08;;;;;;;1.16;100.00;100562.81;5111819;28;20031;-75
2023/01/22 06:15:54;;;;;;;52.83;34.13;;;;;;;1.22;100.00;100557.75;5111797;28;20074;-75
2023/01/22 06:18:20;;;;;;;57.30;33.67;;;;;;;1.05;100.00;100559.31;5111711;28;20020;-75
2023/01/22 06:20:46;;;;;;;68.18;40.22;;;;;;;1.12;100.00;100585.88;5111456;28;20496;-75
2023/01/22 06:23:12;;;;;;;69.07;42.45;;;;;;;1.02;100.00;100584.97;5111570;28;20102;-75
2023/01/22 06:25:37;;;;;;;77.45;44.58;;;;;;;1.09;100.00;100588.44;5111694;28;20038;-75
2023/01/22 06:28:02;;;;;;;79.63;44.83;;;;;;;1.18;100.00;100615.03;5112573;28;20020;-75
2023/01/22 06:30:28;;;;;;;81.88;44.70;;;;;;;1.35;100.00;100614.25;5114063;28;20038;-75
2023/01/22 06:32:53;;;;;;;73.45;43.40;;;;;;;1.29;100.00;100599.69;5115474;28;20026;-75
2023/01/22 06:35:19;;;;;;;74.93;40.15;;;;;;;1.19;100.00;100601.34;5115178;28;20383;-75
2023/01/22 06:37:44;;;;;;;67.25;38.17;;;;;;;1.40;100.00;100616.03;5115299;28;20475;-75
2023/01/22 06:40:10;;;;;;;70.78;38.83;;;;;;;1.13;100.00;100598.72;5115272;28;20027;-75
2023/01/22 06:42:36;;;;;;;70.47;36.65;;;;;;;1.29;100.00;100617.66;5115163;28;20034;-75
2023/01/22 06:45:01;;;;;;;92.55;59.25;;;;;;;1.28;100.00;100623.66;5115293;28;20051;-75
2023/01/22 06:47:26;;;;;;;81.43;46.63;;;;;;;1.16;100.00;100610.72;5115041;28;20047;-75
2023/01/22 06:49:52;;;;;;;86.90;47.40;;;;;;;1.20;100.00;100626.16;5115172;28;20375;-75
2023/01/22 06:52:17;;;;;;;97.80;56.65;;;;;;;1.07;100.00;100620.94;5114800;28;20432;-75
2023/01/22 06:54:42;;;;;;;83.53;47.40;;;;;;;1.27;100.00;100624.50;5115201;28;20088;-75
2023/01/22 06:57:08;;;;;;;94.15;51.80;;;;;;;1.24;100.00;100611.63;5114748;28;20119;-75
2023/01/22 06:59:33;;;;;;;117.93;74.57;;;;;;;1.11;100.00;100605.56;5114759;28;20168;-75
2023/01/22 07:01:58;;;;;;;99.05;59.50;;;;;;;1.11;100.00;100607.28;5114998;28;20049;-75
2023/01/22 07:04:24;;;;;;;96.05;51.50;;;;;;;1.12;100.00;100637.19;5114734;28;20102;-75
2023/01/22 07:06:49;;;;;;;135.82;62.22;;;;;;;1.16;100.00;100618.41;5114871;28;20072;-75
2023/01/22 07:09:14;;;;;;;99.22;50.53;;;;;;;0.83;100.00;100606.19;5114421;28;20102;-75
2023/01/22 07:11:39;;;;;;;95.75;55.13;;;;;;;0.97;100.00;100617.44;5114662;27;20031;-75
2023/01/22 07:14:05;;;;;;;95.40;49.03;;;;;;;1.19;100.00;100627.00;5114796;28;20094;-75
2023/01/22 07:16:30;;;;;;;256.17;132.95;;;;;;;1.19;100.00;100637.28;5114484;28;20059;-75
2023/01/22 07:18:55;;;;;;;93.03;45.28;;;;;;;1.04;100.00;100637.13;5114628;28;20059;-75
2023/01/22 07:21:21;;;;;;;88.05;45.35;;;;;;;1.08;100.00;100645.72;5113793;28;20120;-75
2023/01/22 07:23:46;;;;;;;107.05;53.13;;;;;;;1.08;100.00;100641.44;5113498;28;20020;-75
2023/01/22 07:26:11;;;;;;;110.30;54.92;;;;;;;1.13;100.00;100629.50;5114558;28;20496;-75
2023/01/22 07:28:37;;;;;;;117.65;59.80;;;;;;;1.34;100.00;100651.03;5114282;28;20051;-75
2023/01/22 07:31:02;;;;;;;96.63;47.72;;;;;;;1.22;100.00;100655.25;5114457;28;20031;-75
2023/01/22 07:33:27;;;;;;;83.68;43.75;;;;;;;1.24;100.00;100629.59;5114105;28;20467;-75
2023/01/22 07:35:56;;;;;;;89.32;43.80;;;;;;;1.28;100.00;100636.47;5114254;28;20019;-75
2023/01/22 07:38:25;;;;;;;105.10;54.22;;;;;;;1.33;100.00;100652.75;5113781;28;20035;-75
2023/01/22 07:40:50;;;;;;;76.72;39.53;;;;;;;1.25;100.00;100645.00;5113870;28;20055;-75
2023/01/22 07:43:16;;;;;;;107.88;57.13;;;;;;;1.10;100.00;100621.81;5113977;28;20058;-75
2023/01/22 07:45:42;;;;;;;66.78;36.40;;;;;;;1.34;100.00;100630.50;5114083;28;20027;-75
2023/01/22 07:48:09;;;;;;;88.72;45.40;;;;;;;1.34;100.00;100641.63;5114031;28;20019;-75
2023/01/22 07:50:36;;;;;;;106.85;50.80;;;;;;;1.35;100.00;100669.03;5113657;28;20067;-75
2023/01/22 07:53:02;;;;;;;66.70;33.90;;;;;;;1.18;100.00;100655.19;5113763;27;20032;-75
2023/01/22 07:55:28;;;;;;;134.30;58.80;;;;;;;1.29;100.00;100679.25;5113767;28;20023;-75
2023/01/22 07:58:05;;;;;;;248.73;89.18;;;;;;;1.08;100.00;100656.84;5113662;28;20024;-75
2023/01/22 08:00:33;;;;;;;81.30;40.15;;;;;;;1.42;100.00;100693.03;5113495;28;20038;-74
2023/01/22 08:02:58;;;;;;;133.40;56.08;;;;;;;1.24;100.00;100683.50;5113732;28;20023;-74
2023/01/22 08:05:24;;;;;;;127.20;56.22;;;;;;;1.34;100.00;100692.09;5113294;28;20031;-74
2023/01/22 08:07:49;;;;;;;120.28;53.70;;;;;;;1.38;100.00;100665.63;5113742;28;20119;-75
2023/01/22 08:10:15;;;;;;;116.00;55.40;;;;;;;1.53;100.00;100693.13;5113657;28;20024;-74
2023/01/22 08:12:42;;;;;;;96.00;47.42;;;;;;;1.33;100.00;100670.72;5113503;28;20070;-74
2023/01/22 08:15:09;;;;;;;195.20;83.32;;;;;;;1.24;100.00;100662.97;5113586;28;20059;-74
2023/01/22 08:17:34;;;;;;;105.45;48.80;;;;;;;1.52;100.00;100694.84;5113184;28;20016;-74
2023/01/22 08:20:00;;;;;;;237.68;101.60;;;;;;;1.46;100.00;100676.81;5112961;28;20042;-74
2023/01/22 08:22:25;;;;;;;202.70;87.53;;;;;;;1.43;100.00;100679.34;5113393;28;20028;-74
2023/01/22 08:24:50;;;;;;;91.35;43.20;;;;;;;1.53;100.00;100682.84;5113432;28;20024;-75
2023/01/22 08:27:16;;;;;;;109.05;55.25;;;;;;;1.51;100.00;100693.09;5113216;28;20024;-75
2023/01/22 08:29:41;;;;;;;68.07;36.30;;;;;;;1.53;100.00;100672.59;5113019;28;20024;-74
2023/01/22 08:32:06;;;;;;;59.13;32.72;;;;;;;1.52;100.00;100699.09;5113089;28;20031;-74
2023/01/22 08:34:32;;;;;;;90.40;48.33;;;;;;;1.33;100.00;100672.44;5112819;28;20024;-74
2023/01/22 08:36:57;;;;;;;66.28;35.70;;;;;;;1.29;100.00;100674.13;5113168;27;20024;-74
2023/01/22 08:39:23;;;;;;;76.57;41.95;;;;;;;1.53;100.00;100693.13;5112187;28;20023;-75
2023/01/22 08:41:48;;;;;;;61.25;32.20;;;;;;;1.49;100.00;100692.22;5112534;28;20024;-75
2023/01/22 08:44:13;;;;;;;67.50;37.50;;;;;;;1.67;100.00;100710.31;5112647;28;20031;-74
2023/01/22 08:46:39;;;;;;;112.22;57.35;;;;;;;1.72;100.00;100718.91;5112408;28;20353;-75
2023/01/22 08:49:05;;;;;;;64.93;36.00;;;;;;;1.77;100.00;100706.13;5112324;28;20602;-74
2023/01/22 08:51:31;;;;;;;172.35;90.22;;;;;;;1.79;100.00;100712.13;5112069;28;20442;-74
2023/01/22 08:53:57;;;;;;;87.10;47.95;;;;;;;1.61;100.00;100697.47;5112502;28;20070;-74
2023/01/22 08:56:22;;;;;;;73.65;39.45;;;;;;;1.68;100.00;100700.91;5112274;28;20030;-74
2023/01/22 08:58:49;;;;;;;75.60;40.97;;;;;;;1.76;100.00;100701.81;5112361;28;20390;-74
2023/01/22 09:01:16;;;;;;;74.82;40.25;;;;;;;1.78;100.00;100714.69;5112506;28;20034;-74
2023/01/22 09:03:42;;;;;;;84.72;42.67;;;;;;;1.62;100.00;100717.13;5112015;28;20567;-74
2023/01/22 09:06:07;;;;;;;62.28;32.42;;;;;;;1.38;100.00;100675.88;5112294;28;20053;-74
2023/01/22 09:08:32;;;;;;;82.72;44.03;;;;;;;1.60;100.00;100703.44;5111016;28;20035;-74
2023/01/22 09:10:58;;;;;;;71.07;36.67;;;;;;;1.67;100.00;100732.56;5112156;28;20118;-74
2023/01/22 09:13:23;;;;;;;115.68;56.47;;;;;;;1.57;100.00;100725.66;5112025;28;20034;-74
2023/01/22 09:15:48;;;;;;;86.57;46.05;;;;;;;1.76;100.00;100737.78;5111976;28;20030;-74
2023/01/22 09:18:14;;;;;;;131.70;64.82;;;;;;;1.78;100.00;100728.38;5112003;28;20024;-74
2023/01/22 09:20:40;;;;;;;89.57;44.33;;;;;;;1.70;100.00;100705.22;5111465;28;20044;-74
2023/01/22 09:23:06;;;;;;;66.93;35.33;;;;;;;1.70;100.00;100694.94;5112229;28;20431;-74
2023/01/22 09:25:31;;;;;;;89.20;46.53;;;;;;;1.94;100.00;100717.34;5111973;28;20370;-74
2023/01/22 09:27:58;;;;;;;103.43;52.70;;;;;;;2.05;100.00;100712.25;5111953;28;20110;-74
2023/01/22 09:30:25;;;;;;;145.43;69.05;;;;;;;1.78;100.00;100700.13;5111848;28;20059;-74
2023/01/22 09:32:50;;;;;;;107.95;54.97;;;;;;;1.91;100.00;100742.16;5111794;28;20023;-74
2023/01/22 09:35:16;;;;;;;63.53;34.78;;;;;;;1.52;100.00;100719.63;5111959;28;20080;-74
2023/01/22 09:37:41;;;;;;;71.13;34.85;;;;;;;1.36;100.00;100696.41;5111887;28;20020;-74
2023/01/22 09:40:20;;;;;;;83.55;41.22;;;;;;;1.54;100.00;100712.81;5111797;28;20032;-74
2023/01/22 09:42:45;;;;;;;147.23;70.00;;;;;;;1.95;100.00;100757.59;5112062;28;20020;-74
2023/01/22 09:45:14;;;;;;;126.35;64.60;;;;;;;1.81;100.00;100723.25;5112134;28;20532;-74
2023/01/22 09:47:43;;;;;;;72.30;35.42;;;;;;;1.78;100.00;100725.81;5111500;28;20030;-74
2023/01/22 09:50:25;;;;;;;70.45;36.95;;;;;;;1.73;100.00;100737.78;5111903;28;20497;-74
2023/01/22 09:52:51;;;;;;;;;;;;;;;1.66;100.00;100754.84;5112356;28;20368;-74
2023/01/22 09:55:20;;;;;;;70.85;37.25;;;;;;;1.74;100.00;100742.06;5111964;28;19911;-74
2023/01/22 09:57:48;;;;;;;75.75;40.17;;;;;;;1.73;100.00;100733.50;5111410;28;20028;-74
2023/01/22 10:00:25;;;;;;;78.20;41.05;;;;;;;1.64;100.00;100750.53;5112013;28;20035;-74
2023/01/22 10:03:20;;;;;;;106.25;56.10;;;;;;;1.52;100.00;100722.19;5112568;28;20080;-74
2023/01/22 10:05:55;;;;;;;125.57;66.18;;;;;;;1.64;100.00;100743.69;5115769;28;20019;-74
2023/01/22 10:08:25;;;;;;;77.93;43.90;;;;;;;1.50;100.00;100720.47;5115836;28;20116;-74
2023/01/22 10:10:51;;;;;;;143.90;74.15;;;;;;;1.79;100.00;100749.78;5116043;28;20028;-74
2023/01/22 10:13:23;;;;;;;277.67;135.13;;;;;;;1.81;100.00;100743.78;5115779;28;20378;-74
2023/01/22 10:15:51;;;;;;;277.52;143.90;;;;;;;1.69;100.00;100725.75;5115688;28;20041;-74
2023/01/22 10:18:24;;;;;;;163.13;97.82;;;;;;;1.70;100.00;100740.31;5115661;28;20381;-74
2023/01/22 10:20:50;;;;;;;85.70;52.63;;;;;;;1.49;100.00;100698.22;5113793;28;20071;-74
2023/01/22 10:23:18;;;;;;;69.97;38.88;;;;;;;1.66;100.00;100739.44;5115787;28;20043;-74
2023/01/22 10:25:45;;;;;;;88.70;49.80;;;;;;;1.64;100.00;100707.72;5115504;28;20077;-74
2023/01/22 10:28:12;;;;;;;93.22;48.83;;;;;;;1.73;100.00;100712.94;5115658;28;20035;-74
2023/01/22 10:30:46;;;;;;;94.65;57.47;;;;;;;1.75;100.00;100702.66;5115324;28;20066;-74
2023/01/22 10:33:16;;;;;;;78.00;46.28;;;;;;;1.58;100.00;100702.56;5115399;28;20031;-74
2023/01/22 10:35:47;;;;;;;66.32;40.53;;;;;;;1.72;100.00;100731.75;5115323;28;20038;-75
2023/01/22 10:38:28;;;;;;;51.75;30.08;;;;;;;1.72;100.00;100739.47;5115359;28;20030;-73
2023/01/22 10:40:57;;;;;;;56.97;30.33;;;;;;;1.48;100.00;100734.16;5115295;28;20047;-73
2023/01/22 10:43:37;;;;;;;125.32;63.60;;;;;;;1.64;100.00;100706.88;5115500;28;20028;-73
2023/01/22 10:46:03;;;;;;;73.20;38.37;;;;;;;1.73;100.00;100737.78;5115210;27;20035;-73
2023/01/22 10:48:29;;;;;;;50.33;31.63;;;;;;;1.69;100.00;100736.03;5115071;28;20262;-73
2023/01/22 10:51:23;;;;;;;103.05;52.50;;;;;;;1.71;100.00;100735.19;5115185;28;20057;-73
2023/01/22 10:53:52;;;;;;;126.90;63.90;;;;;;;1.78;100.00;100728.38;5114924;28;20027;-74
2023/01/22 10:56:29;;;;;;;48.83;30.55;;;;;;;1.50;100.00;100724.75;5114814;28;20031;-76
2023/01/22 10:58:55;;;;;;;85.68;45.88;;;;;;;1.36;100.00;100719.53;5115000;28;20569;-73
2023/01/22 11:01:38;;;;;;;79.00;44.92;;;;;;;1.40;100.00;100713.56;5114956;28;20055;-73
2023/01/22 11:04:19;;;;;;;55.67;30.30;;;;;;;1.54;100.00;100736.78;5115007;28;20106;-73
2023/01/22 11:06:49;;;;;;;78.72;44.92;;;;;;;1.60;100.00;100738.50;5114609;28;20417;-73
2023/01/22 11:09:44;;;;;;;82.95;45.13;;;;;;;1.62;100.00;100716.28;5114959;28;20059;-73
2023/01/22 11:12:24;;;;;;;91.78;48.22;;;;;;;1.63;100.00;100723.13;5051687;28;20082;-73
2023/01/22 11:15:03;;;;;;;54.55;30.95;;;;;;;1.64;100.00;100733.41;5050869;28;20041;-73